NL-0041 weather

CLOSED Wieringermeer Glider Field
Noord-Holland, Netherlands

Public forecast

Using degrees Celsius for public forecast. Weather courtesy of forecast.io.

METAR (pilot weather report)

Closest report is De Kooy Airport, 8.1 nm (15.0 km) NW. Retrieved 2019/03/22 05:25 UTC (26 minutes ago):

EHKD 220525Z AUTO 19006KT 2300 BR OVC004 08/07 Q1031 YLO 19006KT 2000 BR BKN005

TAF (pilot weather forecast)

Closest forecast is De Kooy Airport, 8.1 nm (15.0 km) NW. Retrieved 2019/03/22 02:06 UTC (4 hours ago):

TAF TAF EHKD 220145Z 2202/2214 19003KT 5000 BR OVC007 PROB40 2204/2211 0800 FG OVC002 BECMG 2212/2214 24006KT 6000 SCT007